Tubul — A8VP8 — position and weather

sailwx.info

Track history (hours):
 
Tides and Currents Weather Stations Pressure Air Temp Water Temp Dewpoint Dewpoint Depression Visibility Wind Speed Wind Dir Waves Ship Positions

Tubul

Last reported at 2014-Oct-31 20:27 UTC. Time now 2014-Oct-31 20:53 UTC.
Position N 01°15' E 103°54'.

Length 300 m; draft 12 m.

Type: Ship. MMSI: 636014647.

Date/timePositionNaut miles runAvg speedWind from/ knotsBaromVisibWave heightAir tempDewpointWater temp
2014-Oct-31 20:27N 01°15' E 103°54'0 0.1
2014-Oct-31 19:24N 01°15' E 103°54'0 0.2
2014-Oct-31 18:27N 01°15' E 103°54'0 0.1
2014-Oct-31 17:06N 01°15' E 103°54'0 0.0
2014-Oct-31 10:15N 01°15' E 103°54'0 0.0
2014-Oct-31 09:31N 01°15' E 103°54'0 0.2
2014-Oct-31 08:24N 01°15' E 103°54'0 0.2
2014-Oct-31 07:33N 01°15' E 103°54'3 3.1
2014-Oct-31 06:33N 01°15' E 103°57'1110.7
2014-Oct-31 05:30N 01°17' E 104°08'  
2014-Oct-25 14:05N 22°20' E 114°07'0 0.4
2014-Oct-25 13:12N 22°20' E 114°07'17 2.4
2014-Oct-25 06:09N 22°34' E 114°16'0 0.0
2014-Oct-25 05:33N 22°34' E 114°16'0 0.0
2014-Oct-25 04:21N 22°34' E 114°16'0 0.0
2014-Oct-25 00:15N 22°34' E 114°16'0 0.0
2014-Oct-24 21:24N 22°34' E 114°16'150 6.9
2014-Oct-23 23:32N 22°51' E 116°58'1611.1
2014-Oct-23 22:07N 22°58' E 117°13'6112.1
2014-Oct-23 17:06N 23°33' E 118°08'712.2
2014-Oct-23 16:31N 23°37' E 118°13'41111.3
2014-Oct-22 04:13N 29°15' E 122°35'1911.5
2014-Oct-22 02:33N 29°35' E 122°34'1010.5
2014-Oct-22 01:33N 29°42' E 122°26'10 9.9
2014-Oct-22 00:33N 29°47' E 122°16'8 8.6
2014-Oct-21 23:34N 29°48' E 122°06'  
Track history (hours):
 
Tides and Currents Weather Stations Pressure Air Temp Water Temp Dewpoint Dewpoint Depression Visibility Wind Speed Wind Dir Waves Ship Positions

Tubul

Last reported at 2014-Oct-31 20:27 UTC. Time now 2014-Oct-31 20:53 UTC.
Position N 01°15' E 103°54'.

Length 300 m; draft 12 m.

Type: Ship. MMSI: 636014647.

Date/timePositionNaut miles runAvg speedWind from/ knotsBaromVisibWave heightAir tempDewpointWater temp
2014-Oct-31 20:27N 01°15' E 103°54'0 0.1
2014-Oct-31 19:24N 01°15' E 103°54'0 0.2
2014-Oct-31 18:27N 01°15' E 103°54'0 0.1
2014-Oct-31 17:06N 01°15' E 103°54'0 0.0
2014-Oct-31 10:15N 01°15' E 103°54'0 0.0
2014-Oct-31 09:31N 01°15' E 103°54'0 0.2
2014-Oct-31 08:24N 01°15' E 103°54'0 0.2
2014-Oct-31 07:33N 01°15' E 103°54'3 3.1
2014-Oct-31 06:33N 01°15' E 103°57'1110.7
2014-Oct-31 05:30N 01°17' E 104°08'  
2014-Oct-25 14:05N 22°20' E 114°07'0 0.4
2014-Oct-25 13:12N 22°20' E 114°07'17 2.4
2014-Oct-25 06:09N 22°34' E 114°16'0 0.0
2014-Oct-25 05:33N 22°34' E 114°16'0 0.0
2014-Oct-25 04:21N 22°34' E 114°16'0 0.0
2014-Oct-25 00:15N 22°34' E 114°16'0 0.0
2014-Oct-24 21:24N 22°34' E 114°16'150 6.9
2014-Oct-23 23:32N 22°51' E 116°58'1611.1
2014-Oct-23 22:07N 22°58' E 117°13'6112.1
2014-Oct-23 17:06N 23°33' E 118°08'712.2
2014-Oct-23 16:31N 23°37' E 118°13'41111.3
2014-Oct-22 04:13N 29°15' E 122°35'1911.5
2014-Oct-22 02:33N 29°35' E 122°34'1010.5
2014-Oct-22 01:33N 29°42' E 122°26'10 9.9
2014-Oct-22 00:33N 29°47' E 122°16'8 8.6
2014-Oct-21 23:34N 29°48' E 122°06'  

Dump ship's entire track history